Schedule Details


Flight Number: CTN471
Departure: Charles-de-gaulle (LFPG) at 18:30
Arrival: Franjo Tudman (LDZA) at 20:20
Route: LANVI UM164 EPL UN491 DEGES UN871 MADEB UN606 ELMEM UL607 GEDSO DCT VEKEN Y177 DEGUM DCT ARGOM

Weather Information
LFPG 242200Z 02008KT 360V090 CAVOK 23/19 Q1015 NOSIG
LDZA 242200Z 01003KT 9999 FEW045 22/18 Q1021 NOSIG
Schedule Frequency

Route Map